sensor_id;sensor_type;location;lat;lon;timestamp;temperature;humidity
67557;DHT22;54387;53.526;49.300;2023-06-24T00:02:17;11.10;62.60
67557;DHT22;54387;53.526;49.300;2023-06-24T00:04:43;11.10;62.60
67557;DHT22;54387;53.526;49.300;2023-06-24T00:07:10;11.10;62.70
67557;DHT22;54387;53.526;49.300;2023-06-24T00:09:36;11.10;62.70
67557;DHT22;54387;53.526;49.300;2023-06-24T00:12:03;11.10;62.80
67557;DHT22;54387;53.526;49.300;2023-06-24T00:14:30;11.10;62.80
67557;DHT22;54387;53.526;49.300;2023-06-24T00:16:56;11.10;62.90
67557;DHT22;54387;53.526;49.300;2023-06-24T00:19:24;11.00;63.00
67557;DHT22;54387;53.526;49.300;2023-06-24T00:21:52;11.00;63.10
67557;DHT22;54387;53.526;49.300;2023-06-24T00:24:20;11.00;63.10
67557;DHT22;54387;53.526;49.300;2023-06-24T00:26:47;11.00;63.20
67557;DHT22;54387;53.526;49.300;2023-06-24T00:29:13;11.00;63.30
67557;DHT22;54387;53.526;49.300;2023-06-24T00:31:41;11.00;63.40
67557;DHT22;54387;53.526;49.300;2023-06-24T00:34:08;11.00;63.40
67557;DHT22;54387;53.526;49.300;2023-06-24T00:36:34;11.00;63.50
67557;DHT22;54387;53.526;49.300;2023-06-24T00:39:04;11.00;63.60
67557;DHT22;54387;53.526;49.300;2023-06-24T00:41:34;11.00;63.70
67557;DHT22;54387;53.526;49.300;2023-06-24T00:44:01;11.00;63.70
67557;DHT22;54387;53.526;49.300;2023-06-24T00:46:28;11.00;63.80
67557;DHT22;54387;53.526;49.300;2023-06-24T00:48:55;11.00;63.80
67557;DHT22;54387;53.526;49.300;2023-06-24T00:51:22;11.00;63.90
67557;DHT22;54387;53.526;49.300;2023-06-24T00:54:00;10.90;64.00
67557;DHT22;54387;53.526;49.300;2023-06-24T00:56:31;11.00;64.10
67557;DHT22;54387;53.526;49.300;2023-06-24T00:59:02;10.90;64.30
67557;DHT22;54387;53.526;49.300;2023-06-24T01:01:34;10.90;64.30
67557;DHT22;54387;53.526;49.300;2023-06-24T01:04:02;11.00;64.50
67557;DHT22;54387;53.526;49.300;2023-06-24T01:06:29;11.00;65.10
67557;DHT22;54387;53.526;49.300;2023-06-24T01:08:59;11.00;64.60
67557;DHT22;54387;53.526;49.300;2023-06-24T01:11:26;11.00;64.70
67557;DHT22;54387;53.526;49.300;2023-06-24T01:13:53;11.10;64.80
67557;DHT22;54387;53.526;49.300;2023-06-24T01:19:02;11.10;64.90
67557;DHT22;54387;53.526;49.300;2023-06-24T01:21:39;11.10;65.50
67557;DHT22;54387;53.526;49.300;2023-06-24T01:32:37;11.20;65.10
67557;DHT22;54387;53.526;49.300;2023-06-24T01:35:11;11.20;65.20
67557;DHT22;54387;53.526;49.300;2023-06-24T01:37:42;11.30;65.30
67557;DHT22;54387;53.526;49.300;2023-06-24T01:40:13;11.30;65.30
67557;DHT22;54387;53.526;49.300;2023-06-24T01:42:45;11.40;65.40
67557;DHT22;54387;53.526;49.300;2023-06-24T01:45:29;11.40;65.60
67557;DHT22;54387;53.526;49.300;2023-06-24T01:48:07;11.50;66.30
67557;DHT22;54387;53.526;49.300;2023-06-24T01:50:33;11.60;66.00
67557;DHT22;54387;53.526;49.300;2023-06-24T01:53:06;11.60;65.90
67557;DHT22;54387;53.526;49.300;2023-06-24T01:55:34;11.70;66.30
67557;DHT22;54387;53.526;49.300;2023-06-24T01:58:03;11.80;66.60
67557;DHT22;54387;53.526;49.300;2023-06-24T02:00:33;11.90;66.70
67557;DHT22;54387;53.526;49.300;2023-06-24T02:03:00;12.00;66.80
67557;DHT22;54387;53.526;49.300;2023-06-24T02:05:27;12.10;66.80
67557;DHT22;54387;53.526;49.300;2023-06-24T02:07:54;12.10;66.80
67557;DHT22;54387;53.526;49.300;2023-06-24T02:10:22;12.20;66.80
67557;DHT22;54387;53.526;49.300;2023-06-24T02:12:51;12.30;66.80
67557;DHT22;54387;53.526;49.300;2023-06-24T02:15:19;12.30;66.60
67557;DHT22;54387;53.526;49.300;2023-06-24T02:17:49;12.40;66.50
67557;DHT22;54387;53.526;49.300;2023-06-24T02:20:17;12.40;66.30
67557;DHT22;54387;53.526;49.300;2023-06-24T02:22:45;12.50;66.20
67557;DHT22;54387;53.526;49.300;2023-06-24T02:25:12;12.50;66.00
67557;DHT22;54387;53.526;49.300;2023-06-24T02:27:39;12.60;65.90
67557;DHT22;54387;53.526;49.300;2023-06-24T02:30:07;12.70;65.70
67557;DHT22;54387;53.526;49.300;2023-06-24T02:32:34;12.80;65.50
67557;DHT22;54387;53.526;49.300;2023-06-24T02:35:05;12.90;65.30
67557;DHT22;54387;53.526;49.300;2023-06-24T02:37:33;12.90;65.00
67557;DHT22;54387;53.526;49.300;2023-06-24T02:39:59;13.00;64.90
67557;DHT22;54387;53.526;49.300;2023-06-24T02:42:26;13.10;64.80
67557;DHT22;54387;53.526;49.300;2023-06-24T02:44:53;13.10;64.60
67557;DHT22;54387;53.526;49.300;2023-06-24T02:47:21;13.20;64.40
67557;DHT22;54387;53.526;49.300;2023-06-24T02:49:48;13.30;64.30
67557;DHT22;54387;53.526;49.300;2023-06-24T02:52:15;13.30;64.00
67557;DHT22;54387;53.526;49.300;2023-06-24T02:54:42;13.40;63.90
67557;DHT22;54387;53.526;49.300;2023-06-24T02:57:09;13.50;63.70
67557;DHT22;54387;53.526;49.300;2023-06-24T02:59:36;13.60;63.60
67557;DHT22;54387;53.526;49.300;2023-06-24T03:02:04;13.60;63.40
67557;DHT22;54387;53.526;49.300;2023-06-24T03:04:31;13.70;63.10
67557;DHT22;54387;53.526;49.300;2023-06-24T03:06:57;13.80;62.90
67557;DHT22;54387;53.526;49.300;2023-06-24T03:09:27;13.90;62.70
67557;DHT22;54387;53.526;49.300;2023-06-24T03:11:53;14.00;62.60
67557;DHT22;54387;53.526;49.300;2023-06-24T03:14:19;14.00;62.50
67557;DHT22;54387;53.526;49.300;2023-06-24T03:16:45;14.10;62.30
67557;DHT22;54387;53.526;49.300;2023-06-24T03:19:12;14.20;62.20
67557;DHT22;54387;53.526;49.300;2023-06-24T03:21:38;14.30;62.00
67557;DHT22;54387;53.526;49.300;2023-06-24T03:24:04;14.40;61.80
67557;DHT22;54387;53.526;49.300;2023-06-24T03:26:35;14.50;61.50
67557;DHT22;54387;53.526;49.300;2023-06-24T03:29:02;14.60;61.20
67557;DHT22;54387;53.526;49.300;2023-06-24T03:31:28;14.80;61.00
67557;DHT22;54387;53.526;49.300;2023-06-24T03:33:55;14.90;60.70
67557;DHT22;54387;53.526;49.300;2023-06-24T03:36:21;15.00;60.20
67557;DHT22;54387;53.526;49.300;2023-06-24T03:38:47;15.10;60.00
67557;DHT22;54387;53.526;49.300;2023-06-24T03:41:13;15.20;59.30
67557;DHT22;54387;53.526;49.300;2023-06-24T03:43:40;15.30;59.00
67557;DHT22;54387;53.526;49.300;2023-06-24T03:46:08;15.50;58.40
67557;DHT22;54387;53.526;49.300;2023-06-24T03:48:35;15.60;57.90
67557;DHT22;54387;53.526;49.300;2023-06-24T03:51:01;15.70;57.20
67557;DHT22;54387;53.526;49.300;2023-06-24T03:53:27;15.90;56.90
67557;DHT22;54387;53.526;49.300;2023-06-24T03:55:53;16.00;57.40
67557;DHT22;54387;53.526;49.300;2023-06-24T03:58:20;16.20;55.00
67557;DHT22;54387;53.526;49.300;2023-06-24T04:00:47;16.30;53.70
67557;DHT22;54387;53.526;49.300;2023-06-24T04:03:16;16.50;52.40
67557;DHT22;54387;53.526;49.300;2023-06-24T04:05:45;16.80;52.40
67557;DHT22;54387;53.526;49.300;2023-06-24T04:08:11;17.00;49.60
67557;DHT22;54387;53.526;49.300;2023-06-24T04:10:37;17.20;49.10
67557;DHT22;54387;53.526;49.300;2023-06-24T04:13:04;17.30;48.70
67557;DHT22;54387;53.526;49.300;2023-06-24T04:15:30;17.40;48.10
67557;DHT22;54387;53.526;49.300;2023-06-24T04:17:56;17.60;48.00
67557;DHT22;54387;53.526;49.300;2023-06-24T04:20:23;17.60;46.80
67557;DHT22;54387;53.526;49.300;2023-06-24T04:22:50;17.70;46.90
67557;DHT22;54387;53.526;49.300;2023-06-24T04:25:16;17.80;46.00
67557;DHT22;54387;53.526;49.300;2023-06-24T04:27:42;17.80;45.10
67557;DHT22;54387;53.526;49.300;2023-06-24T04:30:09;17.80;44.90
67557;DHT22;54387;53.526;49.300;2023-06-24T04:32:35;17.90;45.30
67557;DHT22;54387;53.526;49.300;2023-06-24T04:35:01;17.90;45.00
67557;DHT22;54387;53.526;49.300;2023-06-24T04:37:28;18.00;44.30
67557;DHT22;54387;53.526;49.300;2023-06-24T04:39:54;18.10;44.20
67557;DHT22;54387;53.526;49.300;2023-06-24T04:42:21;18.20;43.80
67557;DHT22;54387;53.526;49.300;2023-06-24T04:44:48;18.40;44.00
67557;DHT22;54387;53.526;49.300;2023-06-24T04:47:18;18.70;43.40
67557;DHT22;54387;53.526;49.300;2023-06-24T04:49:44;18.90;42.40
67557;DHT22;54387;53.526;49.300;2023-06-24T04:52:11;19.10;42.10
67557;DHT22;54387;53.526;49.300;2023-06-24T04:54:37;19.20;42.20
67557;DHT22;54387;53.526;49.300;2023-06-24T04:57:07;19.40;41.70
67557;DHT22;54387;53.526;49.300;2023-06-24T04:59:34;19.40;41.10
67557;DHT22;54387;53.526;49.300;2023-06-24T05:02:00;19.60;41.30
67557;DHT22;54387;53.526;49.300;2023-06-24T05:04:26;19.50;41.00
67557;DHT22;54387;53.526;49.300;2023-06-24T05:06:53;19.50;41.30
67557;DHT22;54387;53.526;49.300;2023-06-24T05:09:19;19.40;41.20
67557;DHT22;54387;53.526;49.300;2023-06-24T05:11:45;19.30;42.20
67557;DHT22;54387;53.526;49.300;2023-06-24T05:14:11;19.30;41.10
67557;DHT22;54387;53.526;49.300;2023-06-24T05:16:39;19.20;41.50
67557;DHT22;54387;53.526;49.300;2023-06-24T05:19:06;19.20;41.80
67557;DHT22;54387;53.526;49.300;2023-06-24T05:21:32;19.30;41.80
67557;DHT22;54387;53.526;49.300;2023-06-24T05:23:58;19.40;41.80
67557;DHT22;54387;53.526;49.300;2023-06-24T05:26:24;19.40;42.00
67557;DHT22;54387;53.526;49.300;2023-06-24T05:28:50;19.40;42.10
67557;DHT22;54387;53.526;49.300;2023-06-24T05:31:16;19.50;41.60
67557;DHT22;54387;53.526;49.300;2023-06-24T05:33:46;19.60;41.40
67557;DHT22;54387;53.526;49.300;2023-06-24T05:36:12;19.70;41.30
67557;DHT22;54387;53.526;49.300;2023-06-24T05:38:39;19.70;40.50
67557;DHT22;54387;53.526;49.300;2023-06-24T05:41:06;19.80;40.30
67557;DHT22;54387;53.526;49.300;2023-06-24T05:43:32;19.80;40.30
67557;DHT22;54387;53.526;49.300;2023-06-24T05:45:58;19.90;40.30
67557;DHT22;54387;53.526;49.300;2023-06-24T05:48:24;19.90;40.50
67557;DHT22;54387;53.526;49.300;2023-06-24T05:50:51;20.00;40.50
67557;DHT22;54387;53.526;49.300;2023-06-24T05:53:17;20.00;40.30
67557;DHT22;54387;53.526;49.300;2023-06-24T05:55:44;20.10;40.00
67557;DHT22;54387;53.526;49.300;2023-06-24T05:58:11;20.10;39.70
67557;DHT22;54387;53.526;49.300;2023-06-24T06:00:37;20.10;39.30
67557;DHT22;54387;53.526;49.300;2023-06-24T06:03:03;20.10;39.30
67557;DHT22;54387;53.526;49.300;2023-06-24T06:05:29;20.20;38.90
67557;DHT22;54387;53.526;49.300;2023-06-24T06:07:55;20.20;38.70
67557;DHT22;54387;53.526;49.300;2023-06-24T06:10:22;20.30;38.70
67557;DHT22;54387;53.526;49.300;2023-06-24T06:12:50;20.30;38.10
67557;DHT22;54387;53.526;49.300;2023-06-24T06:15:16;20.30;38.20
67557;DHT22;54387;53.526;49.300;2023-06-24T06:17:42;20.40;37.60
67557;DHT22;54387;53.526;49.300;2023-06-24T06:20:09;20.50;38.10
67557;DHT22;54387;53.526;49.300;2023-06-24T06:22:35;20.70;37.20
67557;DHT22;54387;53.526;49.300;2023-06-24T06:25:05;20.70;37.20
67557;DHT22;54387;53.526;49.300;2023-06-24T06:27:31;20.90;37.00
67557;DHT22;54387;53.526;49.300;2023-06-24T06:29:58;21.00;36.60
67557;DHT22;54387;53.526;49.300;2023-06-24T06:32:24;21.10;35.80
67557;DHT22;54387;53.526;49.300;2023-06-24T06:34:51;21.20;35.90
67557;DHT22;54387;53.526;49.300;2023-06-24T06:37:17;21.40;35.80
67557;DHT22;54387;53.526;49.300;2023-06-24T06:39:43;21.60;35.60
67557;DHT22;54387;53.526;49.300;2023-06-24T06:42:09;21.70;34.80
67557;DHT22;54387;53.526;49.300;2023-06-24T06:44:41;21.90;34.70
67557;DHT22;54387;53.526;49.300;2023-06-24T06:47:07;22.00;34.40
67557;DHT22;54387;53.526;49.300;2023-06-24T06:49:33;22.20;34.10
67557;DHT22;54387;53.526;49.300;2023-06-24T06:51:59;22.20;33.70
67557;DHT22;54387;53.526;49.300;2023-06-24T06:54:25;22.30;33.60
67557;DHT22;54387;53.526;49.300;2023-06-24T06:56:52;22.30;33.80
67557;DHT22;54387;53.526;49.300;2023-06-24T06:59:18;22.40;33.40
67557;DHT22;54387;53.526;49.300;2023-06-24T07:01:44;22.60;33.40
67557;DHT22;54387;53.526;49.300;2023-06-24T07:04:11;22.70;33.00
67557;DHT22;54387;53.526;49.300;2023-06-24T07:06:37;22.80;33.00
67557;DHT22;54387;53.526;49.300;2023-06-24T07:09:04;22.90;32.60
67557;DHT22;54387;53.526;49.300;2023-06-24T07:11:30;23.10;32.40
67557;DHT22;54387;53.526;49.300;2023-06-24T07:13:57;23.20;32.40
67557;DHT22;54387;53.526;49.300;2023-06-24T07:16:23;23.30;32.30
67557;DHT22;54387;53.526;49.300;2023-06-24T07:18:49;23.30;31.80
67557;DHT22;54387;53.526;49.300;2023-06-24T07:21:15;23.30;31.80
67557;DHT22;54387;53.526;49.300;2023-06-24T07:23:41;23.30;32.00
67557;DHT22;54387;53.526;49.300;2023-06-24T07:26:08;23.30;32.00
67557;DHT22;54387;53.526;49.300;2023-06-24T07:28:35;23.30;31.80
67557;DHT22;54387;53.526;49.300;2023-06-24T07:31:02;23.30;31.50
67557;DHT22;54387;53.526;49.300;2023-06-24T07:33:28;23.30;31.80
67557;DHT22;54387;53.526;49.300;2023-06-24T07:35:57;23.30;32.00
67557;DHT22;54387;53.526;49.300;2023-06-24T07:38:23;23.30;31.80
67557;DHT22;54387;53.526;49.300;2023-06-24T07:40:49;23.50;31.20
67557;DHT22;54387;53.526;49.300;2023-06-24T07:43:17;23.50;31.10
67557;DHT22;54387;53.526;49.300;2023-06-24T07:45:44;23.60;31.20
67557;DHT22;54387;53.526;49.300;2023-06-24T07:48:10;23.60;30.60
67557;DHT22;54387;53.526;49.300;2023-06-24T07:50:38;23.40;30.40
67557;DHT22;54387;53.526;49.300;2023-06-24T07:53:04;23.40;30.70
67557;DHT22;54387;53.526;49.300;2023-06-24T07:55:31;23.40;30.60
67557;DHT22;54387;53.526;49.300;2023-06-24T07:57:57;23.50;30.40
67557;DHT22;54387;53.526;49.300;2023-06-24T08:00:26;23.70;30.20
67557;DHT22;54387;53.526;49.300;2023-06-24T08:02:52;23.80;30.00
67557;DHT22;54387;53.526;49.300;2023-06-24T08:05:19;24.00;29.70
67557;DHT22;54387;53.526;49.300;2023-06-24T08:07:46;24.30;29.20
67557;DHT22;54387;53.526;49.300;2023-06-24T08:10:13;24.50;29.20
67557;DHT22;54387;53.526;49.300;2023-06-24T08:12:39;24.70;29.00
67557;DHT22;54387;53.526;49.300;2023-06-24T08:15:06;25.00;28.80
67557;DHT22;54387;53.526;49.300;2023-06-24T08:17:33;25.30;28.20
67557;DHT22;54387;53.526;49.300;2023-06-24T08:20:00;25.50;27.70
67557;DHT22;54387;53.526;49.300;2023-06-24T08:22:26;25.60;27.50
67557;DHT22;54387;53.526;49.300;2023-06-24T08:24:52;25.60;26.80
67557;DHT22;54387;53.526;49.300;2023-06-24T08:27:18;25.60;27.10
67557;DHT22;54387;53.526;49.300;2023-06-24T08:29:44;25.70;26.80
67557;DHT22;54387;53.526;49.300;2023-06-24T08:32:11;25.80;26.40
67557;DHT22;54387;53.526;49.300;2023-06-24T08:34:37;25.90;26.50
67557;DHT22;54387;53.526;49.300;2023-06-24T08:37:04;26.00;26.40
67557;DHT22;54387;53.526;49.300;2023-06-24T08:39:30;26.10;26.10
67557;DHT22;54387;53.526;49.300;2023-06-24T08:41:56;26.20;26.10
67557;DHT22;54387;53.526;49.300;2023-06-24T08:44:22;26.30;26.00
67557;DHT22;54387;53.526;49.300;2023-06-24T08:46:49;26.30;25.90
67557;DHT22;54387;53.526;49.300;2023-06-24T08:49:28;26.20;26.20
67557;DHT22;54387;53.526;49.300;2023-06-24T08:52:15;26.10;26.20
67557;DHT22;54387;53.526;49.300;2023-06-24T08:54:46;26.00;25.90
67557;DHT22;54387;53.526;49.300;2023-06-24T08:57:13;26.00;26.10
67557;DHT22;54387;53.526;49.300;2023-06-24T08:59:42;25.80;26.30
67557;DHT22;54387;53.526;49.300;2023-06-24T09:02:08;25.70;26.30
67557;DHT22;54387;53.526;49.300;2023-06-24T09:04:35;25.70;26.50
67557;DHT22;54387;53.526;49.300;2023-06-24T09:07:01;25.60;26.20
67557;DHT22;54387;53.526;49.300;2023-06-24T09:09:27;25.50;26.20
67557;DHT22;54387;53.526;49.300;2023-06-24T09:12:00;25.40;26.40
67557;DHT22;54387;53.526;49.300;2023-06-24T09:14:27;25.40;26.40
67557;DHT22;54387;53.526;49.300;2023-06-24T09:16:59;25.30;26.60
67557;DHT22;54387;53.526;49.300;2023-06-24T09:19:29;25.30;26.80
67557;DHT22;54387;53.526;49.300;2023-06-24T09:22:04;25.20;26.70
67557;DHT22;54387;53.526;49.300;2023-06-24T09:24:32;25.10;26.80
67557;DHT22;54387;53.526;49.300;2023-06-24T09:26:58;25.10;27.10
67557;DHT22;54387;53.526;49.300;2023-06-24T09:29:31;25.20;27.30
67557;DHT22;54387;53.526;49.300;2023-06-24T09:31:58;25.50;27.10
67557;DHT22;54387;53.526;49.300;2023-06-24T09:34:27;25.80;27.00
67557;DHT22;54387;53.526;49.300;2023-06-24T09:36:58;26.00;26.80
67557;DHT22;54387;53.526;49.300;2023-06-24T09:39:26;26.00;26.70
67557;DHT22;54387;53.526;49.300;2023-06-24T09:41:57;25.80;26.80
67557;DHT22;54387;53.526;49.300;2023-06-24T09:44:23;25.50;27.00
67557;DHT22;54387;53.526;49.300;2023-06-24T09:46:49;25.40;27.10
67557;DHT22;54387;53.526;49.300;2023-06-24T09:49:16;25.30;27.20
67557;DHT22;54387;53.526;49.300;2023-06-24T09:51:47;25.20;27.30
67557;DHT22;54387;53.526;49.300;2023-06-24T09:54:15;25.30;27.40
67557;DHT22;54387;53.526;49.300;2023-06-24T09:56:53;25.50;27.30
67557;DHT22;54387;53.526;49.300;2023-06-24T09:59:20;26.00;27.40
67557;DHT22;54387;53.526;49.300;2023-06-24T10:01:48;26.70;27.10
67557;DHT22;54387;53.526;49.300;2023-06-24T10:04:18;27.10;26.90
67557;DHT22;54387;53.526;49.300;2023-06-24T10:06:44;27.20;26.50
67557;DHT22;54387;53.526;49.300;2023-06-24T10:09:11;27.10;26.20
67557;DHT22;54387;53.526;49.300;2023-06-24T10:11:46;26.90;26.30
67557;DHT22;54387;53.526;49.300;2023-06-24T10:14:14;26.70;26.60
67557;DHT22;54387;53.526;49.300;2023-06-24T10:16:41;26.50;26.90
67557;DHT22;54387;53.526;49.300;2023-06-24T10:19:08;26.30;26.70
67557;DHT22;54387;53.526;49.300;2023-06-24T10:21:45;26.30;26.80
67557;DHT22;54387;53.526;49.300;2023-06-24T10:24:34;26.30;26.80
67557;DHT22;54387;53.526;49.300;2023-06-24T10:29:36;26.20;26.80
67557;DHT22;54387;53.526;49.300;2023-06-24T10:32:11;26.30;26.80
67557;DHT22;54387;53.526;49.300;2023-06-24T10:47:36;25.40;25.90
67557;DHT22;54387;53.526;49.300;2023-06-24T10:50:03;25.20;26.20
67557;DHT22;54387;53.526;49.300;2023-06-24T10:52:29;25.10;26.50
67557;DHT22;54387;53.526;49.300;2023-06-24T10:54:58;25.00;26.80
67557;DHT22;54387;53.526;49.300;2023-06-24T10:57:26;24.80;27.00
67557;DHT22;54387;53.526;49.300;2023-06-24T10:59:56;24.50;27.40
67557;DHT22;54387;53.526;49.300;2023-06-24T11:02:27;24.20;27.70
67557;DHT22;54387;53.526;49.300;2023-06-24T11:05:00;24.10;27.80
67557;DHT22;54387;53.526;49.300;2023-06-24T11:07:38;23.90;27.90
67557;DHT22;54387;53.526;49.300;2023-06-24T11:10:07;23.80;28.00
67557;DHT22;54387;53.526;49.300;2023-06-24T11:12:36;23.70;28.40
67557;DHT22;54387;53.526;49.300;2023-06-24T11:15:10;23.60;28.80
67557;DHT22;54387;53.526;49.300;2023-06-24T11:17:37;23.50;30.00
67557;DHT22;54387;53.526;49.300;2023-06-24T11:20:12;23.40;29.30
67557;DHT22;54387;53.526;49.300;2023-06-24T11:22:40;23.30;29.30
67557;DHT22;54387;53.526;49.300;2023-06-24T11:25:15;23.30;29.50
67557;DHT22;54387;53.526;49.300;2023-06-24T11:27:41;23.30;29.70
67557;DHT22;54387;53.526;49.300;2023-06-24T11:30:08;23.30;29.90
67557;DHT22;54387;53.526;49.300;2023-06-24T11:32:39;23.30;31.00
67557;DHT22;54387;53.526;49.300;2023-06-24T11:35:07;23.30;30.30
67557;DHT22;54387;53.526;49.300;2023-06-24T11:37:34;23.30;30.30
67557;DHT22;54387;53.526;49.300;2023-06-24T11:40:04;23.30;30.30
67557;DHT22;54387;53.526;49.300;2023-06-24T11:42:32;23.20;30.30
67557;DHT22;54387;53.526;49.300;2023-06-24T11:45:04;23.10;30.80
67557;DHT22;54387;53.526;49.300;2023-06-24T11:47:34;22.90;31.50
67557;DHT22;54387;53.526;49.300;2023-06-24T11:50:02;22.80;32.20
67557;DHT22;54387;53.526;49.300;2023-06-24T11:52:39;22.70;33.00
67557;DHT22;54387;53.526;49.300;2023-06-24T11:55:27;22.60;33.50
67557;DHT22;54387;53.526;49.300;2023-06-24T11:58:03;22.30;34.10
67557;DHT22;54387;53.526;49.300;2023-06-24T12:00:36;22.10;35.00
67557;DHT22;54387;53.526;49.300;2023-06-24T12:03:05;21.90;35.60
67557;DHT22;54387;53.526;49.300;2023-06-24T12:05:33;21.90;35.80
67557;DHT22;54387;53.526;49.300;2023-06-24T12:08:01;22.00;35.10
67557;DHT22;54387;53.526;49.300;2023-06-24T12:10:28;22.00;35.00
67557;DHT22;54387;53.526;49.300;2023-06-24T12:13:01;22.10;34.90
67557;DHT22;54387;53.526;49.300;2023-06-24T12:15:28;22.10;34.90
67557;DHT22;54387;53.526;49.300;2023-06-24T12:17:55;22.10;35.20
67557;DHT22;54387;53.526;49.300;2023-06-24T12:20:21;22.10;35.10
67557;DHT22;54387;53.526;49.300;2023-06-24T12:22:48;22.10;34.70
67557;DHT22;54387;53.526;49.300;2023-06-24T12:25:15;22.00;34.50
67557;DHT22;54387;53.526;49.300;2023-06-24T12:27:42;21.90;34.40
67557;DHT22;54387;53.526;49.300;2023-06-24T12:30:10;21.80;34.70
67557;DHT22;54387;53.526;49.300;2023-06-24T12:32:37;21.80;35.10
67557;DHT22;54387;53.526;49.300;2023-06-24T12:35:04;21.70;35.20
67557;DHT22;54387;53.526;49.300;2023-06-24T12:37:31;21.60;35.50
67557;DHT22;54387;53.526;49.300;2023-06-24T12:40:02;21.50;35.70
67557;DHT22;54387;53.526;49.300;2023-06-24T12:42:28;21.50;36.10
67557;DHT22;54387;53.526;49.300;2023-06-24T12:44:55;21.40;36.40
67557;DHT22;54387;53.526;49.300;2023-06-24T12:47:21;21.40;36.40
67557;DHT22;54387;53.526;49.300;2023-06-24T12:49:49;21.50;36.50
67557;DHT22;54387;53.526;49.300;2023-06-24T12:52:15;21.50;36.30
67557;DHT22;54387;53.526;49.300;2023-06-24T12:54:42;21.60;36.60
67557;DHT22;54387;53.526;49.300;2023-06-24T12:57:08;21.60;36.30
67557;DHT22;54387;53.526;49.300;2023-06-24T12:59:34;21.50;35.70
67557;DHT22;54387;53.526;49.300;2023-06-24T13:02:01;21.40;35.80
67557;DHT22;54387;53.526;49.300;2023-06-24T13:04:27;21.30;35.70
67557;DHT22;54387;53.526;49.300;2023-06-24T13:06:53;21.20;35.90
67557;DHT22;54387;53.526;49.300;2023-06-24T13:09:20;21.10;36.00
67557;DHT22;54387;53.526;49.300;2023-06-24T13:11:46;21.00;36.30
67557;DHT22;54387;53.526;49.300;2023-06-24T13:14:14;20.90;36.60
67557;DHT22;54387;53.526;49.300;2023-06-24T13:16:40;20.80;37.00
67557;DHT22;54387;53.526;49.300;2023-06-24T13:19:06;20.80;37.50
67557;DHT22;54387;53.526;49.300;2023-06-24T13:21:33;20.70;38.10
67557;DHT22;54387;53.526;49.300;2023-06-24T13:23:59;20.60;38.80
67557;DHT22;54387;53.526;49.300;2023-06-24T13:26:25;20.50;39.90
67557;DHT22;54387;53.526;49.300;2023-06-24T13:28:51;20.30;40.00
67557;DHT22;54387;53.526;49.300;2023-06-24T13:31:21;19.90;41.00
67557;DHT22;54387;53.526;49.300;2023-06-24T13:33:47;19.60;42.60
67557;DHT22;54387;53.526;49.300;2023-06-24T13:36:32;19.40;44.40
67557;DHT22;54387;53.526;49.300;2023-06-24T13:39:05;19.10;46.50
67557;DHT22;54387;53.526;49.300;2023-06-24T13:41:32;18.80;48.40
67557;DHT22;54387;53.526;49.300;2023-06-24T13:44:03;18.40;50.60
67557;DHT22;54387;53.526;49.300;2023-06-24T13:46:30;18.10;53.00
67557;DHT22;54387;53.526;49.300;2023-06-24T13:48:57;17.80;54.10
67557;DHT22;54387;53.526;49.300;2023-06-24T13:51:24;17.70;55.40
67557;DHT22;54387;53.526;49.300;2023-06-24T13:53:52;17.60;56.40
67557;DHT22;54387;53.526;49.300;2023-06-24T13:56:19;17.40;56.30
67557;DHT22;54387;53.526;49.300;2023-06-24T13:58:46;17.30;57.00
67557;DHT22;54387;53.526;49.300;2023-06-24T14:01:13;17.20;58.10
67557;DHT22;54387;53.526;49.300;2023-06-24T14:03:40;17.20;59.20
67557;DHT22;54387;53.526;49.300;2023-06-24T14:06:07;17.10;60.00
67557;DHT22;54387;53.526;49.300;2023-06-24T14:08:34;17.10;60.20
67557;DHT22;54387;53.526;49.300;2023-06-24T14:11:02;17.00;60.50
67557;DHT22;54387;53.526;49.300;2023-06-24T14:13:29;17.00;60.80
67557;DHT22;54387;53.526;49.300;2023-06-24T14:15:55;17.00;61.00
67557;DHT22;54387;53.526;49.300;2023-06-24T14:18:22;17.00;61.40
67557;DHT22;54387;53.526;49.300;2023-06-24T14:20:48;17.00;61.70
67557;DHT22;54387;53.526;49.300;2023-06-24T14:23:14;17.00;61.90
67557;DHT22;54387;53.526;49.300;2023-06-24T14:25:41;17.00;62.00
67557;DHT22;54387;53.526;49.300;2023-06-24T14:28:07;17.00;62.20
67557;DHT22;54387;53.526;49.300;2023-06-24T14:30:34;17.00;62.40
67557;DHT22;54387;53.526;49.300;2023-06-24T14:33:03;17.00;62.60
67557;DHT22;54387;53.526;49.300;2023-06-24T14:35:29;17.00;62.90
67557;DHT22;54387;53.526;49.300;2023-06-24T14:37:55;16.90;63.10
67557;DHT22;54387;53.526;49.300;2023-06-24T14:40:21;16.90;63.10
67557;DHT22;54387;53.526;49.300;2023-06-24T14:42:47;16.80;63.00
67557;DHT22;54387;53.526;49.300;2023-06-24T14:45:14;16.80;63.40
67557;DHT22;54387;53.526;49.300;2023-06-24T14:47:40;16.70;63.00
67557;DHT22;54387;53.526;49.300;2023-06-24T14:50:07;16.70;63.30
67557;DHT22;54387;53.526;49.300;2023-06-24T14:52:33;16.60;63.50
67557;DHT22;54387;53.526;49.300;2023-06-24T14:54:59;16.60;63.70
67557;DHT22;54387;53.526;49.300;2023-06-24T14:57:26;16.50;63.90
67557;DHT22;54387;53.526;49.300;2023-06-24T14:59:52;16.50;64.00
67557;DHT22;54387;53.526;49.300;2023-06-24T15:02:18;16.50;64.10
67557;DHT22;54387;53.526;49.300;2023-06-24T15:04:45;16.50;64.20
67557;DHT22;54387;53.526;49.300;2023-06-24T15:07:11;16.50;64.20
67557;DHT22;54387;53.526;49.300;2023-06-24T15:09:38;16.40;64.30
67557;DHT22;54387;53.526;49.300;2023-06-24T15:12:04;16.40;64.50
67557;DHT22;54387;53.526;49.300;2023-06-24T15:14:30;16.40;64.70
67557;DHT22;54387;53.526;49.300;2023-06-24T15:16:57;16.40;64.90
67557;DHT22;54387;53.526;49.300;2023-06-24T15:19:24;16.40;65.20
67557;DHT22;54387;53.526;49.300;2023-06-24T15:21:50;16.40;65.40
67557;DHT22;54387;53.526;49.300;2023-06-24T15:24:16;16.40;65.20
67557;DHT22;54387;53.526;49.300;2023-06-24T15:26:43;16.30;65.30
67557;DHT22;54387;53.526;49.300;2023-06-24T15:29:09;16.30;65.40
67557;DHT22;54387;53.526;49.300;2023-06-24T15:31:35;16.20;65.60
67557;DHT22;54387;53.526;49.300;2023-06-24T15:34:01;16.20;65.70
67557;DHT22;54387;53.526;49.300;2023-06-24T15:36:27;16.20;65.80
67557;DHT22;54387;53.526;49.300;2023-06-24T15:38:55;16.10;65.70
67557;DHT22;54387;53.526;49.300;2023-06-24T15:41:22;16.10;65.60
67557;DHT22;54387;53.526;49.300;2023-06-24T15:43:48;16.10;65.60
67557;DHT22;54387;53.526;49.300;2023-06-24T15:46:14;16.00;65.60